首页
METAR-TAF:

METAR-TAF

机场 :

帕果帕果國際機場

帕果帕果, 美国本土外小岛屿

纬度: 14-20S, 经度: 170-43W, 海拔: 3米

当前天气观测

该预报发布于35分钟前的04:50 UTC
风速11节,风向东转东南
温度 28°C
湿度 79%
气压 1011 hPa
能見度: 19.3公里
散云层高于1800英尺
散云层高于4000英尺

METAR: NSTU 190450Z 11011KT 12SM SCT018 SCT040 28/24 A2984 RMK SLP107 T02760242

时间: 18:25 (05:25 UTC)

预报

该预报发布于5小时和46分钟前的23:39 UTC
预报有效从19日的 00点(UTC)到 19日的 24点(UTC)
风速11节,风向东南
能見度: 10公里
散云层高于1800英尺
散云层高于4000英尺
多云层高于10000英尺

TAF: NSTU 182339Z 1900/1924 13011KT P6SM SCT018 SCT040 BKN100

超过4000个机场的气象观测和天气预报(METAR&TAF报告)。

可查询的气象台以黄色和红色小点在地图上表示。

将鼠标移到小点上方,可查看气象台名称。

然后点击查看天气观测和预报。

如需切换地图:点击带黑十字的绿色按钮放大地图;点击带横线的绿色按钮缩小地图;或者点击绿色箭头查看邻近地区的地图。


METAR-TAF: